sensor_id;sensor_type;location;lat;lon;timestamp;P1;durP1;ratioP1;P2;durP2;ratioP2
69789;SDS011;57064;52.046;4.800;2023-04-03T00:01:32;5.22;;;1.30;;
69789;SDS011;57064;52.046;4.800;2023-04-03T00:03:58;6.75;;;1.63;;
69789;SDS011;57064;52.046;4.800;2023-04-03T00:06:25;3.58;;;1.40;;
69789;SDS011;57064;52.046;4.800;2023-04-03T00:08:51;3.63;;;1.25;;
69789;SDS011;57064;52.046;4.800;2023-04-03T00:11:17;2.42;;;0.93;;
69789;SDS011;57064;52.046;4.800;2023-04-03T00:13:45;7.43;;;1.30;;
69789;SDS011;57064;52.046;4.800;2023-04-03T00:16:11;3.42;;;1.40;;
69789;SDS011;57064;52.046;4.800;2023-04-03T00:18:37;3.20;;;0.93;;
69789;SDS011;57064;52.046;4.800;2023-04-03T00:21:04;3.05;;;1.50;;
69789;SDS011;57064;52.046;4.800;2023-04-03T00:23:31;3.80;;;1.33;;
69789;SDS011;57064;52.046;4.800;2023-04-03T00:25:57;5.20;;;1.90;;
69789;SDS011;57064;52.046;4.800;2023-04-03T00:28:23;2.83;;;1.38;;
69789;SDS011;57064;52.046;4.800;2023-04-03T00:30:50;3.65;;;1.05;;
69789;SDS011;57064;52.046;4.800;2023-04-03T00:33:16;3.47;;;1.17;;
69789;SDS011;57064;52.046;4.800;2023-04-03T00:35:44;3.28;;;1.50;;
69789;SDS011;57064;52.046;4.800;2023-04-03T00:38:10;3.70;;;1.85;;
69789;SDS011;57064;52.046;4.800;2023-04-03T00:40:37;3.03;;;1.15;;
69789;SDS011;57064;52.046;4.800;2023-04-03T00:43:25;5.53;;;1.13;;
69789;SDS011;57064;52.046;4.800;2023-04-03T00:45:53;2.70;;;1.25;;
69789;SDS011;57064;52.046;4.800;2023-04-03T00:48:21;2.53;;;1.02;;
69789;SDS011;57064;52.046;4.800;2023-04-03T00:50:54;4.25;;;1.38;;
69789;SDS011;57064;52.046;4.800;2023-04-03T00:53:23;1.65;;;1.20;;
69789;SDS011;57064;52.046;4.800;2023-04-03T00:55:53;3.83;;;1.58;;
69789;SDS011;57064;52.046;4.800;2023-04-03T00:58:22;1.70;;;1.02;;
69789;SDS011;57064;52.046;4.800;2023-04-03T01:01:03;4.82;;;1.35;;
69789;SDS011;57064;52.046;4.800;2023-04-03T01:03:32;4.80;;;1.17;;
69789;SDS011;57064;52.046;4.800;2023-04-03T01:05:59;3.85;;;1.17;;
69789;SDS011;57064;52.046;4.800;2023-04-03T01:08:25;3.45;;;1.27;;
69789;SDS011;57064;52.046;4.800;2023-04-03T01:10:51;4.63;;;1.00;;
69789;SDS011;57064;52.046;4.800;2023-04-03T01:13:27;3.95;;;1.63;;
69789;SDS011;57064;52.046;4.800;2023-04-03T01:15:55;4.43;;;1.23;;
69789;SDS011;57064;52.046;4.800;2023-04-03T01:18:22;3.47;;;1.42;;
69789;SDS011;57064;52.046;4.800;2023-04-03T01:26:09;2.50;;;1.30;;
69789;SDS011;57064;52.046;4.800;2023-04-03T01:28:37;2.30;;;1.20;;
69789;SDS011;57064;52.046;4.800;2023-04-03T01:33:52;6.28;;;3.05;;
69789;SDS011;57064;52.046;4.800;2023-04-03T01:36:21;2.47;;;1.20;;
69789;SDS011;57064;52.046;4.800;2023-04-03T01:38:49;4.18;;;1.50;;
69789;SDS011;57064;52.046;4.800;2023-04-03T01:41:16;2.97;;;1.42;;
69789;SDS011;57064;52.046;4.800;2023-04-03T01:43:43;2.00;;;1.30;;
69789;SDS011;57064;52.046;4.800;2023-04-03T01:46:09;2.33;;;1.30;;
69789;SDS011;57064;52.046;4.800;2023-04-03T01:48:35;3.78;;;1.48;;
69789;SDS011;57064;52.046;4.800;2023-04-03T01:51:01;4.15;;;1.45;;
69789;SDS011;57064;52.046;4.800;2023-04-03T01:53:27;5.15;;;1.88;;
69789;SDS011;57064;52.046;4.800;2023-04-03T01:55:53;5.53;;;1.77;;
69789;SDS011;57064;52.046;4.800;2023-04-03T01:58:19;5.45;;;1.40;;
69789;SDS011;57064;52.046;4.800;2023-04-03T02:00:45;4.55;;;1.83;;
69789;SDS011;57064;52.046;4.800;2023-04-03T02:03:11;4.47;;;1.60;;
69789;SDS011;57064;52.046;4.800;2023-04-03T02:05:37;4.00;;;1.55;;
69789;SDS011;57064;52.046;4.800;2023-04-03T02:08:03;4.50;;;1.42;;
69789;SDS011;57064;52.046;4.800;2023-04-03T02:10:30;5.43;;;1.73;;
69789;SDS011;57064;52.046;4.800;2023-04-03T02:12:57;6.32;;;2.00;;
69789;SDS011;57064;52.046;4.800;2023-04-03T02:15:23;6.50;;;1.98;;
69789;SDS011;57064;52.046;4.800;2023-04-03T02:17:49;6.05;;;2.03;;
69789;SDS011;57064;52.046;4.800;2023-04-03T02:20:16;2.20;;;1.27;;
69789;SDS011;57064;52.046;4.800;2023-04-03T02:22:42;3.88;;;1.40;;
69789;SDS011;57064;52.046;4.800;2023-04-03T02:25:08;4.25;;;1.48;;
69789;SDS011;57064;52.046;4.800;2023-04-03T02:27:35;3.40;;;1.45;;
69789;SDS011;57064;52.046;4.800;2023-04-03T02:30:01;3.40;;;2.10;;
69789;SDS011;57064;52.046;4.800;2023-04-03T02:32:28;3.97;;;1.75;;
69789;SDS011;57064;52.046;4.800;2023-04-03T02:34:54;4.03;;;1.48;;
69789;SDS011;57064;52.046;4.800;2023-04-03T02:37:21;4.30;;;1.77;;
69789;SDS011;57064;52.046;4.800;2023-04-03T02:39:47;3.65;;;1.58;;
69789;SDS011;57064;52.046;4.800;2023-04-03T02:42:13;2.67;;;1.60;;
69789;SDS011;57064;52.046;4.800;2023-04-03T02:44:39;3.95;;;1.83;;
69789;SDS011;57064;52.046;4.800;2023-04-03T02:47:05;5.95;;;2.08;;
69789;SDS011;57064;52.046;4.800;2023-04-03T02:49:31;3.85;;;1.95;;
69789;SDS011;57064;52.046;4.800;2023-04-03T02:51:57;2.97;;;1.45;;
69789;SDS011;57064;52.046;4.800;2023-04-03T02:54:23;3.58;;;1.80;;
69789;SDS011;57064;52.046;4.800;2023-04-03T02:56:53;3.08;;;1.80;;
69789;SDS011;57064;52.046;4.800;2023-04-03T02:59:20;7.68;;;2.03;;
69789;SDS011;57064;52.046;4.800;2023-04-03T03:01:46;7.00;;;1.88;;
69789;SDS011;57064;52.046;4.800;2023-04-03T03:04:12;4.75;;;1.92;;
69789;SDS011;57064;52.046;4.800;2023-04-03T03:06:38;4.80;;;1.90;;
69789;SDS011;57064;52.046;4.800;2023-04-03T03:09:05;4.65;;;2.08;;
69789;SDS011;57064;52.046;4.800;2023-04-03T03:11:31;6.03;;;2.25;;
69789;SDS011;57064;52.046;4.800;2023-04-03T03:13:57;4.85;;;1.90;;
69789;SDS011;57064;52.046;4.800;2023-04-03T03:16:23;4.57;;;2.92;;
69789;SDS011;57064;52.046;4.800;2023-04-03T03:18:49;4.43;;;2.03;;
69789;SDS011;57064;52.046;4.800;2023-04-03T03:21:15;5.40;;;2.20;;
69789;SDS011;57064;52.046;4.800;2023-04-03T03:23:41;3.88;;;1.92;;
69789;SDS011;57064;52.046;4.800;2023-04-03T03:26:08;4.30;;;2.22;;
69789;SDS011;57064;52.046;4.800;2023-04-03T03:28:35;3.95;;;2.03;;
69789;SDS011;57064;52.046;4.800;2023-04-03T03:31:03;5.50;;;2.30;;
69789;SDS011;57064;52.046;4.800;2023-04-03T03:33:29;5.18;;;1.75;;
69789;SDS011;57064;52.046;4.800;2023-04-03T03:35:55;3.15;;;1.90;;
69789;SDS011;57064;52.046;4.800;2023-04-03T03:38:22;2.92;;;1.83;;
69789;SDS011;57064;52.046;4.800;2023-04-03T03:40:49;3.50;;;2.20;;
69789;SDS011;57064;52.046;4.800;2023-04-03T03:43:16;5.38;;;2.50;;
69789;SDS011;57064;52.046;4.800;2023-04-03T03:45:42;5.22;;;2.50;;
69789;SDS011;57064;52.046;4.800;2023-04-03T03:48:10;6.25;;;3.17;;
69789;SDS011;57064;52.046;4.800;2023-04-03T03:50:36;5.82;;;2.30;;
69789;SDS011;57064;52.046;4.800;2023-04-03T03:53:02;6.07;;;2.58;;
69789;SDS011;57064;52.046;4.800;2023-04-03T03:55:28;3.92;;;2.28;;
69789;SDS011;57064;52.046;4.800;2023-04-03T03:57:54;7.90;;;3.40;;
69789;SDS011;57064;52.046;4.800;2023-04-03T04:00:20;5.85;;;2.15;;
69789;SDS011;57064;52.046;4.800;2023-04-03T04:02:47;6.50;;;2.20;;
69789;SDS011;57064;52.046;4.800;2023-04-03T04:05:13;7.97;;;3.17;;
69789;SDS011;57064;52.046;4.800;2023-04-03T04:07:39;5.20;;;2.67;;
69789;SDS011;57064;52.046;4.800;2023-04-03T04:10:05;3.83;;;2.17;;
69789;SDS011;57064;52.046;4.800;2023-04-03T04:12:31;6.53;;;3.17;;
69789;SDS011;57064;52.046;4.800;2023-04-03T04:14:57;6.57;;;1.90;;
69789;SDS011;57064;52.046;4.800;2023-04-03T04:17:23;7.00;;;2.47;;
69789;SDS011;57064;52.046;4.800;2023-04-03T04:19:49;8.43;;;3.35;;
69789;SDS011;57064;52.046;4.800;2023-04-03T04:22:16;5.45;;;2.50;;
69789;SDS011;57064;52.046;4.800;2023-04-03T04:24:42;5.07;;;2.33;;
69789;SDS011;57064;52.046;4.800;2023-04-03T04:27:08;7.00;;;3.00;;
69789;SDS011;57064;52.046;4.800;2023-04-03T04:29:34;5.50;;;2.75;;
69789;SDS011;57064;52.046;4.800;2023-04-03T04:32:02;10.57;;;2.90;;
69789;SDS011;57064;52.046;4.800;2023-04-03T04:34:28;3.63;;;2.03;;
69789;SDS011;57064;52.046;4.800;2023-04-03T04:36:55;6.10;;;3.30;;
69789;SDS011;57064;52.046;4.800;2023-04-03T04:39:21;5.85;;;3.00;;
69789;SDS011;57064;52.046;4.800;2023-04-03T04:41:47;7.90;;;3.03;;
69789;SDS011;57064;52.046;4.800;2023-04-03T04:44:13;4.38;;;2.47;;
69789;SDS011;57064;52.046;4.800;2023-04-03T04:46:39;6.18;;;2.97;;
69789;SDS011;57064;52.046;4.800;2023-04-03T04:49:05;6.43;;;2.85;;
69789;SDS011;57064;52.046;4.800;2023-04-03T04:51:31;6.85;;;3.30;;
69789;SDS011;57064;52.046;4.800;2023-04-03T04:53:57;5.10;;;2.50;;
69789;SDS011;57064;52.046;4.800;2023-04-03T04:56:24;5.47;;;2.60;;
69789;SDS011;57064;52.046;4.800;2023-04-03T04:58:50;6.38;;;3.38;;
69789;SDS011;57064;52.046;4.800;2023-04-03T05:01:16;4.68;;;3.28;;
69789;SDS011;57064;52.046;4.800;2023-04-03T05:03:43;5.00;;;2.78;;
69789;SDS011;57064;52.046;4.800;2023-04-03T05:06:09;8.30;;;3.53;;
69789;SDS011;57064;52.046;4.800;2023-04-03T05:08:35;4.90;;;2.72;;
69789;SDS011;57064;52.046;4.800;2023-04-03T05:11:01;7.32;;;2.85;;
69789;SDS011;57064;52.046;4.800;2023-04-03T05:13:28;8.82;;;3.10;;
69789;SDS011;57064;52.046;4.800;2023-04-03T05:15:54;7.22;;;2.83;;
69789;SDS011;57064;52.046;4.800;2023-04-03T05:18:20;7.07;;;3.03;;
69789;SDS011;57064;52.046;4.800;2023-04-03T05:20:48;8.27;;;2.53;;
69789;SDS011;57064;52.046;4.800;2023-04-03T05:23:15;5.32;;;2.78;;
69789;SDS011;57064;52.046;4.800;2023-04-03T05:25:41;3.67;;;2.38;;
69789;SDS011;57064;52.046;4.800;2023-04-03T05:28:10;12.80;;;3.97;;
69789;SDS011;57064;52.046;4.800;2023-04-03T05:30:36;5.68;;;3.03;;
69789;SDS011;57064;52.046;4.800;2023-04-03T05:33:02;7.22;;;3.28;;
69789;SDS011;57064;52.046;4.800;2023-04-03T05:35:28;10.57;;;3.60;;
69789;SDS011;57064;52.046;4.800;2023-04-03T05:37:54;5.53;;;2.75;;
69789;SDS011;57064;52.046;4.800;2023-04-03T05:40:20;8.07;;;3.33;;
69789;SDS011;57064;52.046;4.800;2023-04-03T05:42:48;6.90;;;3.00;;
69789;SDS011;57064;52.046;4.800;2023-04-03T05:45:14;8.35;;;3.00;;
69789;SDS011;57064;52.046;4.800;2023-04-03T05:47:40;5.10;;;3.20;;
69789;SDS011;57064;52.046;4.800;2023-04-03T05:50:06;9.70;;;2.85;;
69789;SDS011;57064;52.046;4.800;2023-04-03T05:52:34;7.60;;;3.10;;
69789;SDS011;57064;52.046;4.800;2023-04-03T05:55:02;7.93;;;2.70;;
69789;SDS011;57064;52.046;4.800;2023-04-03T05:57:29;10.40;;;3.28;;
69789;SDS011;57064;52.046;4.800;2023-04-03T05:59:55;6.95;;;2.65;;
69789;SDS011;57064;52.046;4.800;2023-04-03T06:02:22;7.65;;;2.40;;
69789;SDS011;57064;52.046;4.800;2023-04-03T06:04:49;7.22;;;3.20;;
69789;SDS011;57064;52.046;4.800;2023-04-03T06:07:17;9.48;;;3.10;;
69789;SDS011;57064;52.046;4.800;2023-04-03T06:09:46;10.80;;;3.15;;
69789;SDS011;57064;52.046;4.800;2023-04-03T06:12:12;4.80;;;2.50;;
69789;SDS011;57064;52.046;4.800;2023-04-03T06:14:38;8.73;;;2.65;;
69789;SDS011;57064;52.046;4.800;2023-04-03T06:17:05;6.78;;;3.28;;
69789;SDS011;57064;52.046;4.800;2023-04-03T06:19:32;12.05;;;2.97;;
69789;SDS011;57064;52.046;4.800;2023-04-03T06:21:58;7.40;;;2.90;;
69789;SDS011;57064;52.046;4.800;2023-04-03T06:24:24;5.45;;;2.85;;
69789;SDS011;57064;52.046;4.800;2023-04-03T06:26:50;7.10;;;2.75;;
69789;SDS011;57064;52.046;4.800;2023-04-03T06:29:17;7.55;;;3.08;;
69789;SDS011;57064;52.046;4.800;2023-04-03T06:31:44;9.65;;;3.03;;
69789;SDS011;57064;52.046;4.800;2023-04-03T06:34:11;6.70;;;3.13;;
69789;SDS011;57064;52.046;4.800;2023-04-03T06:36:37;9.02;;;3.53;;
69789;SDS011;57064;52.046;4.800;2023-04-03T06:39:04;5.57;;;2.50;;
69789;SDS011;57064;52.046;4.800;2023-04-03T06:41:30;6.65;;;2.95;;
69789;SDS011;57064;52.046;4.800;2023-04-03T06:43:56;8.43;;;3.25;;
69789;SDS011;57064;52.046;4.800;2023-04-03T06:46:23;4.15;;;2.80;;
69789;SDS011;57064;52.046;4.800;2023-04-03T06:48:50;5.13;;;2.28;;
69789;SDS011;57064;52.046;4.800;2023-04-03T06:51:21;8.02;;;2.50;;
69789;SDS011;57064;52.046;4.800;2023-04-03T06:53:51;10.15;;;2.85;;
69789;SDS011;57064;52.046;4.800;2023-04-03T06:56:18;7.40;;;2.25;;
69789;SDS011;57064;52.046;4.800;2023-04-03T06:58:44;12.90;;;2.33;;
69789;SDS011;57064;52.046;4.800;2023-04-03T07:01:12;7.05;;;2.97;;
69789;SDS011;57064;52.046;4.800;2023-04-03T07:03:39;5.35;;;1.88;;
69789;SDS011;57064;52.046;4.800;2023-04-03T07:06:06;5.03;;;2.30;;
69789;SDS011;57064;52.046;4.800;2023-04-03T07:08:35;8.82;;;3.83;;
69789;SDS011;57064;52.046;4.800;2023-04-03T07:11:02;5.18;;;1.80;;
69789;SDS011;57064;52.046;4.800;2023-04-03T07:13:28;3.53;;;1.35;;
69789;SDS011;57064;52.046;4.800;2023-04-03T07:15:55;4.20;;;1.85;;
69789;SDS011;57064;52.046;4.800;2023-04-03T07:18:22;5.35;;;2.38;;
69789;SDS011;57064;52.046;4.800;2023-04-03T07:20:49;5.25;;;1.20;;
69789;SDS011;57064;52.046;4.800;2023-04-03T07:23:15;9.10;;;2.25;;
69789;SDS011;57064;52.046;4.800;2023-04-03T07:25:43;5.47;;;1.90;;
69789;SDS011;57064;52.046;4.800;2023-04-03T07:28:10;5.47;;;1.90;;
69789;SDS011;57064;52.046;4.800;2023-04-03T07:30:47;4.88;;;1.90;;
69789;SDS011;57064;52.046;4.800;2023-04-03T07:33:15;5.70;;;1.63;;
69789;SDS011;57064;52.046;4.800;2023-04-03T07:35:42;5.05;;;2.35;;
69789;SDS011;57064;52.046;4.800;2023-04-03T07:38:10;3.63;;;1.90;;
69789;SDS011;57064;52.046;4.800;2023-04-03T07:40:36;4.93;;;1.52;;
69789;SDS011;57064;52.046;4.800;2023-04-03T07:43:03;7.45;;;1.95;;
69789;SDS011;57064;52.046;4.800;2023-04-03T07:45:30;4.68;;;1.70;;
69789;SDS011;57064;52.046;4.800;2023-04-03T07:47:57;4.07;;;1.63;;
69789;SDS011;57064;52.046;4.800;2023-04-03T07:50:23;4.80;;;2.00;;
69789;SDS011;57064;52.046;4.800;2023-04-03T07:52:49;5.25;;;1.65;;
69789;SDS011;57064;52.046;4.800;2023-04-03T07:55:16;4.43;;;1.52;;
69789;SDS011;57064;52.046;4.800;2023-04-03T07:57:42;3.60;;;1.70;;
69789;SDS011;57064;52.046;4.800;2023-04-03T08:00:09;8.30;;;1.52;;
69789;SDS011;57064;52.046;4.800;2023-04-03T08:02:36;5.15;;;1.60;;
69789;SDS011;57064;52.046;4.800;2023-04-03T08:05:03;8.10;;;2.00;;
69789;SDS011;57064;52.046;4.800;2023-04-03T08:07:29;6.00;;;1.48;;
69789;SDS011;57064;52.046;4.800;2023-04-03T08:09:55;7.55;;;2.10;;
69789;SDS011;57064;52.046;4.800;2023-04-03T08:12:22;2.85;;;1.27;;
69789;SDS011;57064;52.046;4.800;2023-04-03T08:14:48;6.72;;;1.55;;
69789;SDS011;57064;52.046;4.800;2023-04-03T08:17:14;6.50;;;1.92;;
69789;SDS011;57064;52.046;4.800;2023-04-03T08:19:40;5.20;;;2.03;;
69789;SDS011;57064;52.046;4.800;2023-04-03T08:22:06;3.83;;;1.83;;
69789;SDS011;57064;52.046;4.800;2023-04-03T08:24:33;3.97;;;1.27;;
69789;SDS011;57064;52.046;4.800;2023-04-03T08:27:00;6.03;;;1.65;;
69789;SDS011;57064;52.046;4.800;2023-04-03T08:29:26;4.18;;;1.70;;
69789;SDS011;57064;52.046;4.800;2023-04-03T08:31:52;4.05;;;1.30;;
69789;SDS011;57064;52.046;4.800;2023-04-03T08:34:19;5.93;;;1.95;;
69789;SDS011;57064;52.046;4.800;2023-04-03T08:36:45;6.35;;;1.60;;
69789;SDS011;57064;52.046;4.800;2023-04-03T08:39:11;3.42;;;1.27;;
69789;SDS011;57064;52.046;4.800;2023-04-03T08:41:38;4.35;;;1.50;;
69789;SDS011;57064;52.046;4.800;2023-04-03T08:44:11;4.22;;;1.10;;
69789;SDS011;57064;52.046;4.800;2023-04-03T08:49:47;2.00;;;1.00;;
69789;SDS011;57064;52.046;4.800;2023-04-03T08:52:44;4.28;;;1.48;;
69789;SDS011;57064;52.046;4.800;2023-04-03T08:55:27;2.15;;;0.93;;
69789;SDS011;57064;52.046;4.800;2023-04-03T08:58:06;1.83;;;1.00;;
69789;SDS011;57064;52.046;4.800;2023-04-03T09:03:28;2.45;;;0.90;;
69789;SDS011;57064;52.046;4.800;2023-04-03T09:20:19;1.23;;;0.60;;
69789;SDS011;57064;52.046;4.800;2023-04-03T09:22:55;2.05;;;0.88;;
69789;SDS011;57064;52.046;4.800;2023-04-03T09:25:25;0.82;;;0.38;;
69789;SDS011;57064;52.046;4.800;2023-04-03T09:27:57;2.85;;;0.70;;
69789;SDS011;57064;52.046;4.800;2023-04-03T09:30:26;1.63;;;0.60;;
69789;SDS011;57064;52.046;4.800;2023-04-03T09:32:54;1.38;;;0.50;;
69789;SDS011;57064;52.046;4.800;2023-04-03T09:37:58;1.48;;;0.55;;
69789;SDS011;57064;52.046;4.800;2023-04-03T09:40:36;2.88;;;0.70;;
69789;SDS011;57064;52.046;4.800;2023-04-03T09:43:37;2.33;;;0.68;;
69789;SDS011;57064;52.046;4.800;2023-04-03T09:49:00;2.97;;;0.70;;
69789;SDS011;57064;52.046;4.800;2023-04-03T09:51:28;2.67;;;0.80;;
69789;SDS011;57064;52.046;4.800;2023-04-03T09:53:56;2.75;;;0.70;;
69789;SDS011;57064;52.046;4.800;2023-04-03T10:01:33;3.78;;;0.93;;
69789;SDS011;57064;52.046;4.800;2023-04-03T10:04:36;2.08;;;0.52;;
69789;SDS011;57064;52.046;4.800;2023-04-03T10:07:02;2.97;;;0.85;;
69789;SDS011;57064;52.046;4.800;2023-04-03T10:09:29;2.05;;;0.70;;
69789;SDS011;57064;52.046;4.800;2023-04-03T10:14:35;2.10;;;0.70;;
69789;SDS011;57064;52.046;4.800;2023-04-03T10:22:40;1.67;;;0.68;;
69789;SDS011;57064;52.046;4.800;2023-04-03T10:28:01;1.00;;;0.55;;
69789;SDS011;57064;52.046;4.800;2023-04-03T10:36:06;3.38;;;0.60;;
69789;SDS011;57064;52.046;4.800;2023-04-03T10:42:03;0.30;;;0.20;;
69789;SDS011;57064;52.046;4.800;2023-04-03T10:50:29;1.92;;;0.45;;
69789;SDS011;57064;52.046;4.800;2023-04-03T10:56:03;2.47;;;0.70;;
69789;SDS011;57064;52.046;4.800;2023-04-03T10:58:34;1.48;;;0.40;;
69789;SDS011;57064;52.046;4.800;2023-04-03T11:01:16;0.85;;;0.40;;
69789;SDS011;57064;52.046;4.800;2023-04-03T11:04:03;1.00;;;0.40;;
69789;SDS011;57064;52.046;4.800;2023-04-03T11:07:07;1.75;;;0.50;;
69789;SDS011;57064;52.046;4.800;2023-04-03T11:09:35;1.13;;;0.40;;
69789;SDS011;57064;52.046;4.800;2023-04-03T11:12:29;1.50;;;1.08;;
69789;SDS011;57064;52.046;4.800;2023-04-03T11:15:00;0.50;;;0.20;;
69789;SDS011;57064;52.046;4.800;2023-04-03T11:17:35;1.73;;;0.30;;
69789;SDS011;57064;52.046;4.800;2023-04-03T11:22:54;1.00;;;0.40;;
69789;SDS011;57064;52.046;4.800;2023-04-03T11:25:43;2.42;;;0.30;;
69789;SDS011;57064;52.046;4.800;2023-04-03T11:28:12;0.20;;;0.20;;
69789;SDS011;57064;52.046;4.800;2023-04-03T11:33:41;1.20;;;0.30;;
69789;SDS011;57064;52.046;4.800;2023-04-03T11:36:32;0.55;;;0.43;;
69789;SDS011;57064;52.046;4.800;2023-04-03T11:39:10;0.57;;;0.25;;
69789;SDS011;57064;52.046;4.800;2023-04-03T11:41:44;1.02;;;0.30;;
69789;SDS011;57064;52.046;4.800;2023-04-03T11:44:27;0.60;;;0.30;;
69789;SDS011;57064;52.046;4.800;2023-04-03T11:47:02;0.20;;;0.20;;
69789;SDS011;57064;52.046;4.800;2023-04-03T12:05:51;0.43;;;0.30;;
69789;SDS011;57064;52.046;4.800;2023-04-03T12:16:23;1.15;;;0.40;;
69789;SDS011;57064;52.046;4.800;2023-04-03T12:26:47;0.95;;;0.40;;
69789;SDS011;57064;52.046;4.800;2023-04-03T12:30:29;4.05;;;0.45;;
69789;SDS011;57064;52.046;4.800;2023-04-03T12:41:00;0.90;;;0.32;;
69789;SDS011;57064;52.046;4.800;2023-04-03T12:46:28;1.17;;;0.40;;
69789;SDS011;57064;52.046;4.800;2023-04-03T12:52:16;1.85;;;0.55;;
69789;SDS011;57064;52.046;4.800;2023-04-03T12:54:55;1.30;;;0.60;;
69789;SDS011;57064;52.046;4.800;2023-04-03T12:57:26;2.08;;;0.60;;
69789;SDS011;57064;52.046;4.800;2023-04-03T12:59:53;2.03;;;0.70;;
69789;SDS011;57064;52.046;4.800;2023-04-03T13:02:23;1.52;;;0.60;;
69789;SDS011;57064;52.046;4.800;2023-04-03T13:04:52;1.50;;;0.70;;
69789;SDS011;57064;52.046;4.800;2023-04-03T13:07:24;1.25;;;0.75;;
69789;SDS011;57064;52.046;4.800;2023-04-03T13:12:32;1.55;;;0.60;;
69789;SDS011;57064;52.046;4.800;2023-04-03T13:15:16;0.90;;;0.70;;
69789;SDS011;57064;52.046;4.800;2023-04-03T13:17:51;4.97;;;0.85;;
69789;SDS011;57064;52.046;4.800;2023-04-03T13:20:28;1.77;;;0.50;;
69789;SDS011;57064;52.046;4.800;2023-04-03T13:23:07;2.60;;;0.70;;
69789;SDS011;57064;52.046;4.800;2023-04-03T13:25:37;2.28;;;0.73;;
69789;SDS011;57064;52.046;4.800;2023-04-03T13:28:09;2.65;;;0.80;;
69789;SDS011;57064;52.046;4.800;2023-04-03T13:30:38;0.85;;;0.47;;
69789;SDS011;57064;52.046;4.800;2023-04-03T13:33:17;0.75;;;0.43;;
69789;SDS011;57064;52.046;4.800;2023-04-03T13:35:47;1.48;;;0.50;;
69789;SDS011;57064;52.046;4.800;2023-04-03T13:40:53;2.70;;;0.63;;
69789;SDS011;57064;52.046;4.800;2023-04-03T13:43:29;2.20;;;0.68;;
69789;SDS011;57064;52.046;4.800;2023-04-03T13:45:59;2.55;;;0.85;;
69789;SDS011;57064;52.046;4.800;2023-04-03T13:48:52;1.23;;;0.60;;
69789;SDS011;57064;52.046;4.800;2023-04-03T13:51:29;0.60;;;0.40;;
69789;SDS011;57064;52.046;4.800;2023-04-03T13:53:56;1.17;;;0.60;;
69789;SDS011;57064;52.046;4.800;2023-04-03T14:01:36;3.30;;;0.68;;
69789;SDS011;57064;52.046;4.800;2023-04-03T14:04:11;4.38;;;0.80;;
69789;SDS011;57064;52.046;4.800;2023-04-03T14:06:40;1.52;;;0.60;;
69789;SDS011;57064;52.046;4.800;2023-04-03T14:09:13;1.52;;;0.85;;
69789;SDS011;57064;52.046;4.800;2023-04-03T14:11:40;2.53;;;0.75;;
69789;SDS011;57064;52.046;4.800;2023-04-03T14:14:41;1.10;;;0.50;;
69789;SDS011;57064;52.046;4.800;2023-04-03T14:17:02;1.30;;;0.60;;
69789;SDS011;57064;52.046;4.800;2023-04-03T14:19:37;2.38;;;1.13;;
69789;SDS011;57064;52.046;4.800;2023-04-03T14:22:23;1.48;;;0.70;;
69789;SDS011;57064;52.046;4.800;2023-04-03T14:24:51;1.40;;;0.57;;
69789;SDS011;57064;52.046;4.800;2023-04-03T14:27:22;2.88;;;0.70;;
69789;SDS011;57064;52.046;4.800;2023-04-03T14:29:51;1.17;;;0.73;;
69789;SDS011;57064;52.046;4.800;2023-04-03T14:32:19;1.08;;;0.50;;
69789;SDS011;57064;52.046;4.800;2023-04-03T14:34:46;2.30;;;0.70;;
69789;SDS011;57064;52.046;4.800;2023-04-03T14:37:14;2.38;;;0.80;;
69789;SDS011;57064;52.046;4.800;2023-04-03T14:39:46;2.55;;;1.20;;
69789;SDS011;57064;52.046;4.800;2023-04-03T14:42:14;2.30;;;0.77;;
69789;SDS011;57064;52.046;4.800;2023-04-03T14:44:42;3.72;;;0.75;;
69789;SDS011;57064;52.046;4.800;2023-04-03T14:47:16;1.83;;;1.08;;
69789;SDS011;57064;52.046;4.800;2023-04-03T14:49:46;3.67;;;1.67;;
69789;SDS011;57064;52.046;4.800;2023-04-03T14:52:17;3.20;;;0.80;;
69789;SDS011;57064;52.046;4.800;2023-04-03T14:54:47;2.17;;;0.85;;
69789;SDS011;57064;52.046;4.800;2023-04-03T14:57:14;1.88;;;1.00;;
69789;SDS011;57064;52.046;4.800;2023-04-03T14:59:41;2.20;;;0.70;;
69789;SDS011;57064;52.046;4.800;2023-04-03T15:05:00;1.95;;;0.90;;
69789;SDS011;57064;52.046;4.800;2023-04-03T15:07:29;1.65;;;0.75;;
69789;SDS011;57064;52.046;4.800;2023-04-03T15:10:05;2.30;;;0.70;;
69789;SDS011;57064;52.046;4.800;2023-04-03T15:12:43;1.48;;;0.52;;
69789;SDS011;57064;52.046;4.800;2023-04-03T15:15:10;2.15;;;0.90;;
69789;SDS011;57064;52.046;4.800;2023-04-03T15:17:37;3.15;;;0.93;;
69789;SDS011;57064;52.046;4.800;2023-04-03T15:20:18;2.33;;;0.90;;
69789;SDS011;57064;52.046;4.800;2023-04-03T15:22:47;1.73;;;0.65;;
69789;SDS011;57064;52.046;4.800;2023-04-03T15:25:13;2.85;;;0.80;;
69789;SDS011;57064;52.046;4.800;2023-04-03T15:27:40;2.72;;;0.90;;
69789;SDS011;57064;52.046;4.800;2023-04-03T15:30:08;3.40;;;1.13;;
69789;SDS011;57064;52.046;4.800;2023-04-03T15:32:41;3.10;;;0.68;;
69789;SDS011;57064;52.046;4.800;2023-04-03T15:35:08;2.97;;;0.70;;
69789;SDS011;57064;52.046;4.800;2023-04-03T15:37:34;2.38;;;0.60;;
69789;SDS011;57064;52.046;4.800;2023-04-03T15:40:00;3.22;;;0.88;;
69789;SDS011;57064;52.046;4.800;2023-04-03T15:42:26;1.63;;;0.77;;
69789;SDS011;57064;52.046;4.800;2023-04-03T15:44:52;2.35;;;0.98;;
69789;SDS011;57064;52.046;4.800;2023-04-03T15:47:18;2.10;;;0.73;;
69789;SDS011;57064;52.046;4.800;2023-04-03T15:49:45;2.20;;;0.77;;
69789;SDS011;57064;52.046;4.800;2023-04-03T15:52:11;3.10;;;0.82;;
69789;SDS011;57064;52.046;4.800;2023-04-03T15:54:37;2.10;;;0.77;;
69789;SDS011;57064;52.046;4.800;2023-04-03T15:57:03;1.95;;;0.80;;
69789;SDS011;57064;52.046;4.800;2023-04-03T15:59:29;2.63;;;0.70;;
69789;SDS011;57064;52.046;4.800;2023-04-03T16:01:57;2.45;;;0.90;;
69789;SDS011;57064;52.046;4.800;2023-04-03T16:04:23;2.30;;;0.52;;
69789;SDS011;57064;52.046;4.800;2023-04-03T16:06:49;3.00;;;1.00;;
69789;SDS011;57064;52.046;4.800;2023-04-03T16:09:17;2.53;;;1.00;;
69789;SDS011;57064;52.046;4.800;2023-04-03T16:11:43;1.83;;;0.80;;
69789;SDS011;57064;52.046;4.800;2023-04-03T16:14:09;2.30;;;0.75;;
69789;SDS011;57064;52.046;4.800;2023-04-03T16:16:35;2.42;;;1.10;;
69789;SDS011;57064;52.046;4.800;2023-04-03T16:19:02;4.38;;;1.58;;
69789;SDS011;57064;52.046;4.800;2023-04-03T16:21:29;3.13;;;1.27;;
69789;SDS011;57064;52.046;4.800;2023-04-03T16:23:59;2.95;;;0.80;;
69789;SDS011;57064;52.046;4.800;2023-04-03T16:26:26;1.30;;;0.70;;
69789;SDS011;57064;52.046;4.800;2023-04-03T16:28:52;1.70;;;0.75;;
69789;SDS011;57064;52.046;4.800;2023-04-03T16:31:19;3.45;;;0.90;;
69789;SDS011;57064;52.046;4.800;2023-04-03T16:33:46;1.92;;;1.00;;
69789;SDS011;57064;52.046;4.800;2023-04-03T16:36:12;2.60;;;1.15;;
69789;SDS011;57064;52.046;4.800;2023-04-03T16:38:38;2.22;;;1.00;;
69789;SDS011;57064;52.046;4.800;2023-04-03T16:41:04;5.15;;;1.15;;
69789;SDS011;57064;52.046;4.800;2023-04-03T16:43:31;3.30;;;1.02;;
69789;SDS011;57064;52.046;4.800;2023-04-03T16:45:57;2.33;;;0.93;;
69789;SDS011;57064;52.046;4.800;2023-04-03T16:48:24;3.92;;;1.00;;
69789;SDS011;57064;52.046;4.800;2023-04-03T16:50:50;4.15;;;1.00;;
69789;SDS011;57064;52.046;4.800;2023-04-03T16:53:18;4.72;;;1.45;;
69789;SDS011;57064;52.046;4.800;2023-04-03T16:55:48;4.18;;;1.00;;
69789;SDS011;57064;52.046;4.800;2023-04-03T16:58:15;2.67;;;0.98;;
69789;SDS011;57064;52.046;4.800;2023-04-03T17:00:41;3.55;;;1.58;;
69789;SDS011;57064;52.046;4.800;2023-04-03T17:03:07;3.03;;;1.17;;
69789;SDS011;57064;52.046;4.800;2023-04-03T17:05:34;4.18;;;1.05;;
69789;SDS011;57064;52.046;4.800;2023-04-03T17:08:01;3.28;;;1.00;;
69789;SDS011;57064;52.046;4.800;2023-04-03T17:10:27;2.17;;;1.02;;
69789;SDS011;57064;52.046;4.800;2023-04-03T17:12:54;7.45;;;1.33;;